Time;durP1;ratioP1;P1;durP2;ratioP2;P2;SDS_P1;SDS_P2;PMS_P1;PMS_P2;Temp;Humidity;BMP_temperature;BMP_pressure;BME280_temperature;BME280_humidity;BME280_pressure;Samples;Min_cycle;Max_cycle;Signal;HPM_P1;HPM_P2
2022/02/05 00:01:38;;;;;;;7.80;2.53;;;4.20;99.90;;;;;;5011896;28;20053;-57
2022/02/05 00:04:05;;;;;;;11.95;3.63;;;4.20;99.90;;;;;;5011420;28;20026;-57
2022/02/05 00:06:35;;;;;;;8.27;3.30;;;4.20;99.90;;;;;;5010057;28;20130;-57
2022/02/05 00:09:15;;;;;;;11.80;2.88;;;4.20;99.90;;;;;;5011210;28;20491;-57
2022/02/05 00:41:26;;;;;;;12.07;2.72;;;4.20;99.90;;;;;;5014526;28;20050;-57
2022/02/05 00:43:55;;;;;;;7.63;2.60;;;4.10;99.90;;;;;;5013156;28;20041;-57
2022/02/05 00:46:23;;;;;;;10.73;2.65;;;4.10;99.90;;;;;;5014557;28;20135;-56
2022/02/05 00:48:49;;;;;;;9.75;2.53;;;4.10;99.90;;;;;;5015116;28;20022;-56
2022/02/05 00:51:21;;;;;;;13.55;3.20;;;4.10;99.90;;;;;;5014542;28;20026;-57
2022/02/05 00:53:57;;;;;;;14.40;3.58;;;4.10;99.90;;;;;;5014336;28;20498;-56
2022/02/05 00:56:36;;;;;;;10.10;2.78;;;4.00;99.90;;;;;;5014047;28;20037;-57
2022/02/05 00:59:02;;;;;;;5.40;2.75;;;4.00;99.90;;;;;;5014687;28;20084;-57
2022/02/05 01:01:28;;;;;;;14.80;2.90;;;3.90;99.90;;;;;;5014457;28;20423;-56
2022/02/05 01:03:54;;;;;;;12.63;2.75;;;3.90;99.90;;;;;;5014826;28;20291;-56
2022/02/05 01:06:19;;;;;;;10.15;2.45;;;3.90;99.90;;;;;;5014409;28;20040;-57
2022/02/05 01:08:45;;;;;;;6.00;2.22;;;3.80;99.90;;;;;;5014549;28;20056;-56
2022/02/05 01:11:12;;;;;;;9.82;2.53;;;3.80;99.90;;;;;;5014130;28;20513;-57
2022/02/05 01:13:38;;;;;;;10.38;2.97;;;3.80;99.90;;;;;;5014474;28;20014;-56
2022/02/05 01:16:19;;;;;;;8.80;2.80;;;3.80;99.90;;;;;;5012997;28;20084;-57
2022/02/05 01:18:45;;;;;;;13.88;2.83;;;3.80;99.90;;;;;;5014079;28;20025;-57
2022/02/05 01:26:16;;;;;;;9.70;2.73;;;3.80;99.90;;;;;;5013842;28;20030;-56
2022/02/05 01:28:44;;;;;;;9.60;2.95;;;3.80;99.90;;;;;;5014159;28;20044;-57
2022/02/05 01:31:10;;;;;;;10.00;2.97;;;3.80;99.90;;;;;;5013586;28;20403;-57
2022/02/05 01:33:52;;;;;;;11.63;3.00;;;3.80;99.90;;;;;;5014209;28;20029;-56
2022/02/05 01:50:23;;;;;;;22.27;3.60;;;3.60;99.90;;;;;;5013938;28;20652;-57
2022/02/05 01:58:14;;;;;;;11.43;2.80;;;3.60;99.90;;;;;;5013239;28;20022;-57
2022/02/05 02:11:53;;;;;;;10.27;3.35;;;3.50;99.90;;;;;;5013141;28;20033;-57
2022/02/05 02:15:08;;;;;;;8.85;3.35;;;3.50;99.90;;;;;;5013647;28;20025;-56
2022/02/05 02:22:19;;;;;;;15.90;3.65;;;3.40;99.90;;;;;;5013421;28;20033;-56
2022/02/05 02:25:16;;;;;;;11.43;3.13;;;3.40;99.90;;;;;;5013243;28;20439;-57
2022/02/05 02:27:40;;;;;;;11.05;3.45;;;3.30;99.90;;;;;;5012545;28;20419;-56
2022/02/05 02:30:20;;;;;;;11.57;3.67;;;3.30;99.90;;;;;;5013033;28;20057;-56
2022/02/05 02:32:51;;;;;;;13.43;3.45;;;3.30;99.90;;;;;;5013003;28;20057;-56
2022/02/05 02:35:22;;;;;;;12.68;3.03;;;3.20;99.90;;;;;;5013262;28;20030;-57
2022/02/05 02:37:56;;;;;;;14.90;3.47;;;3.30;99.90;;;;;;5012711;28;20049;-56
2022/02/05 02:42:50;;;;;;;13.27;2.92;;;3.30;99.90;;;;;;5012441;28;20030;-57
2022/02/05 02:45:16;;;;;;;10.38;2.78;;;3.40;99.90;;;;;;5013156;28;20032;-57
2022/02/05 02:47:44;;;;;;;17.90;3.78;;;3.40;99.90;;;;;;5011244;28;20120;-57
2022/02/05 02:50:27;;;;;;;21.67;3.15;;;3.50;99.90;;;;;;5012774;28;20037;-57
2022/02/05 02:58:26;;;;;;;8.98;2.60;;;3.40;99.90;;;;;;5013212;28;20033;-56
2022/02/05 03:00:56;;;;;;;12.43;2.92;;;3.40;99.90;;;;;;5012643;28;20116;-56
2022/02/05 03:03:22;;;;;;;10.77;2.70;;;3.50;99.90;;;;;;5012676;28;20033;-55
2022/02/05 03:05:48;;;;;;;8.07;2.47;;;3.50;99.90;;;;;;5012514;28;20025;-56
2022/02/05 03:08:13;;;;;;;11.18;2.55;;;3.50;99.90;;;;;;5012194;28;20061;-56
2022/02/05 03:10:39;;;;;;;14.23;2.28;;;3.60;99.90;;;;;;5012116;28;20296;-56
2022/02/05 03:13:05;;;;;;;6.82;2.05;;;3.70;99.90;;;;;;5011924;28;20018;-56
2022/02/05 03:15:42;;;;;;;13.93;2.53;;;3.70;99.90;;;;;;5011775;28;20594;-56
2022/02/05 03:18:14;;;;;;;12.05;2.78;;;3.60;99.90;;;;;;5012417;28;20018;-56
2022/02/05 03:20:39;;;;;;;12.25;2.72;;;3.70;99.90;;;;;;5012668;28;20029;-57
2022/02/05 03:23:05;;;;;;;15.45;2.63;;;3.70;99.90;;;;;;5010762;28;20399;-56
2022/02/05 03:25:32;;;;;;;9.95;2.30;;;3.70;99.90;;;;;;5011748;28;20037;-56
2022/02/05 03:27:59;;;;;;;9.30;2.33;;;3.80;99.90;;;;;;5010427;28;20018;-57
2022/02/05 03:30:26;;;;;;;9.50;2.25;;;3.80;99.90;;;;;;5011718;28;20042;-57
2022/02/05 03:32:52;;;;;;;10.20;2.42;;;3.90;99.90;;;;;;5011518;28;20095;-56
2022/02/05 03:35:19;;;;;;;8.48;2.38;;;3.90;99.90;;;;;;5012074;28;20113;-56
2022/02/05 03:37:44;;;;;;;10.93;2.50;;;3.80;99.90;;;;;;5011600;28;20480;-57
2022/02/05 03:40:11;;;;;;;10.55;2.25;;;3.70;99.90;;;;;;5010661;28;20053;-57
2022/02/05 03:42:40;;;;;;;19.58;3.05;;;3.70;99.90;;;;;;5011909;28;20025;-57
2022/02/05 03:45:09;;;;;;;12.50;2.50;;;3.70;99.90;;;;;;5011609;28;20038;-56
2022/02/05 03:47:35;;;;;;;14.40;2.40;;;3.80;99.90;;;;;;5011447;28;20081;-56
2022/02/05 03:50:02;;;;;;;13.90;2.38;;;3.90;99.90;;;;;;5012002;28;20130;-56
2022/02/05 03:52:28;;;;;;;10.30;2.20;;;3.80;99.90;;;;;;5012242;28;20033;-56
2022/02/05 03:54:54;;;;;;;10.13;2.00;;;3.80;99.90;;;;;;5011885;28;20026;-57
2022/02/05 03:57:19;;;;;;;10.88;2.08;;;3.80;99.90;;;;;;5011408;28;20334;-57
2022/02/05 03:59:45;;;;;;;10.85;2.50;;;3.80;99.90;;;;;;5011406;28;20056;-57
2022/02/05 04:02:10;;;;;;;13.93;2.95;;;3.70;99.90;;;;;;5011457;28;20544;-56
2022/02/05 04:04:36;;;;;;;11.88;2.20;;;3.60;99.90;;;;;;5013894;28;20036;-56
2022/02/05 04:07:03;;;;;;;9.27;2.47;;;3.70;99.90;;;;;;5015564;28;20022;-57
2022/02/05 04:09:36;;;;;;;10.00;2.13;;;3.60;99.90;;;;;;5014122;28;20053;-56
2022/02/05 04:17:31;;;;;;;8.32;2.05;;;3.60;99.90;;;;;;5014193;28;20465;-56
2022/02/05 04:19:57;;;;;;;12.45;2.30;;;3.50;99.90;;;;;;5015734;28;20026;-57
2022/02/05 04:22:22;;;;;;;11.70;2.60;;;3.50;99.90;;;;;;5014769;28;20049;-56
2022/02/05 04:24:48;;;;;;;8.60;2.40;;;3.50;99.90;;;;;;5015867;28;20495;-56
2022/02/05 04:27:14;;;;;;;10.10;2.13;;;3.40;99.90;;;;;;5014099;28;20057;-56
2022/02/05 04:29:40;;;;;;;13.40;3.08;;;3.40;99.90;;;;;;5014470;28;20046;-56
2022/02/05 04:32:07;;;;;;;12.32;2.35;;;3.40;99.90;;;;;;5014787;28;20026;-56
2022/02/05 04:34:33;;;;;;;16.40;2.95;;;3.40;99.90;;;;;;5015301;28;20508;-56
2022/02/05 04:37:01;;;;;;;11.15;3.05;;;3.40;99.90;;;;;;5014649;28;20037;-56
2022/02/05 04:39:27;;;;;;;12.15;2.63;;;3.40;99.90;;;;;;5013496;28;20037;-56
2022/02/05 04:42:08;;;;;;;16.88;3.10;;;3.50;99.90;;;;;;5015057;28;20030;-56
2022/02/05 04:44:59;;;;;;;15.70;3.47;;;3.40;99.90;;;;;;5015310;28;20057;-56
2022/02/05 04:53:35;;;;;;;16.35;2.72;;;3.20;99.90;;;;;;5002799;28;20060;-56
2022/02/05 05:19:34;;;;;;;14.20;3.13;;;2.90;99.90;;;;;;5014450;28;20068;-56
2022/02/05 05:22:01;;;;;;;13.70;3.42;;;2.90;99.90;;;;;;5013017;28;20410;-56
2022/02/05 05:24:28;;;;;;;15.57;3.22;;;2.90;99.90;;;;;;5014618;28;20028;-56
2022/02/05 05:26:55;;;;;;;13.43;2.78;;;2.90;99.90;;;;;;5014648;28;20479;-57
2022/02/05 05:29:21;;;;;;;13.85;2.70;;;2.80;99.90;;;;;;5014096;28;20030;-56
2022/02/05 05:31:47;;;;;;;16.65;2.72;;;2.80;99.90;;;;;;5013737;28;20483;-56
2022/02/05 05:34:12;;;;;;;18.13;2.92;;;2.90;99.90;;;;;;5014227;28;20030;-56
2022/02/05 05:36:38;;;;;;;11.75;2.75;;;2.90;99.90;;;;;;5012358;28;20396;-56
2022/02/05 05:39:05;;;;;;;13.55;3.35;;;2.90;99.90;;;;;;5013874;28;20070;-56
2022/02/05 05:41:32;;;;;;;20.73;3.20;;;2.90;99.90;;;;;;5013776;28;20030;-56
2022/02/05 05:46:40;;;;;;;19.02;3.40;;;2.90;99.90;;;;;;5013991;28;20263;-56
2022/02/05 05:49:21;;;;;;;8.30;2.45;;;2.90;99.90;;;;;;5013254;28;20034;-55
2022/02/05 05:51:48;;;;;;;11.07;2.50;;;2.90;99.90;;;;;;5013190;28;20032;-56
2022/02/05 05:54:14;;;;;;;15.35;2.92;;;2.90;99.90;;;;;;5013309;28;20578;-56
2022/02/05 05:56:41;;;;;;;12.50;3.30;;;2.90;99.90;;;;;;5013203;28;20510;-56
2022/02/05 05:59:07;;;;;;;17.17;3.65;;;2.90;99.90;;;;;;5012932;28;20033;-56
2022/02/05 06:01:35;;;;;;;15.15;3.35;;;2.90;99.90;;;;;;5013484;28;20475;-56
2022/02/05 06:04:01;;;;;;;12.98;3.08;;;2.90;99.90;;;;;;5013448;28;20033;-56
2022/02/05 06:06:27;;;;;;;18.52;3.20;;;2.90;99.90;;;;;;5013363;28;20030;-56
2022/02/05 06:08:52;;;;;;;13.40;3.03;;;2.90;99.90;;;;;;5012862;28;20093;-56
2022/02/05 06:11:18;;;;;;;16.17;2.95;;;2.90;99.90;;;;;;5012799;28;20037;-56
2022/02/05 06:13:44;;;;;;;11.88;3.25;;;2.90;99.90;;;;;;5013478;28;20025;-55
2022/02/05 06:16:14;;;;;;;14.05;3.13;;;2.90;99.90;;;;;;5013255;28;20017;-56
2022/02/05 06:18:39;;;;;;;16.02;3.47;;;2.90;99.90;;;;;;5012851;28;20488;-55
2022/02/05 06:21:05;;;;;;;11.57;3.10;;;2.90;99.90;;;;;;5013154;28;20025;-56
2022/02/05 06:23:31;;;;;;;9.85;2.63;;;2.90;99.90;;;;;;5013810;28;20180;-56
2022/02/05 06:25:57;;;;;;;21.50;2.70;;;2.90;99.90;;;;;;5012479;28;20029;-56
2022/02/05 06:28:22;;;;;;;11.93;2.70;;;2.90;99.90;;;;;;5012780;28;20156;-56
2022/02/05 06:30:48;;;;;;;11.50;2.85;;;2.90;99.90;;;;;;5012894;28;20038;-56
2022/02/05 06:33:14;;;;;;;15.32;3.10;;;3.00;99.90;;;;;;5013232;28;20026;-56
2022/02/05 06:35:39;;;;;;;15.52;2.95;;;3.00;99.90;;;;;;5011447;28;20025;-56
2022/02/05 06:38:05;;;;;;;19.35;3.17;;;3.00;99.90;;;;;;5012633;28;20483;-56
2022/02/05 06:40:32;;;;;;;16.15;3.25;;;3.00;99.90;;;;;;5012301;28;20384;-56
2022/02/05 06:42:58;;;;;;;9.07;2.88;;;3.00;99.90;;;;;;5012544;28;20032;-56
2022/02/05 06:45:24;;;;;;;14.25;2.58;;;3.10;99.90;;;;;;5012672;28;20046;-56
2022/02/05 06:47:49;;;;;;;10.25;2.42;;;3.10;99.90;;;;;;5012293;28;20545;-56
2022/02/05 06:50:15;;;;;;;12.57;2.97;;;3.10;99.90;;;;;;5012231;28;20030;-56
2022/02/05 06:52:42;;;;;;;16.85;3.03;;;3.10;99.90;;;;;;5012295;28;20084;-56
2022/02/05 06:55:08;;;;;;;13.43;2.83;;;3.10;99.90;;;;;;5013148;28;20480;-57
2022/02/05 06:57:34;;;;;;;15.57;2.80;;;3.10;99.90;;;;;;5012186;28;20483;-56
2022/02/05 07:00:00;;;;;;;16.02;3.05;;;3.00;99.90;;;;;;5012751;28;20026;-57
2022/02/05 07:02:25;;;;;;;14.18;2.75;;;3.00;99.90;;;;;;5012358;28;20022;-57
2022/02/05 07:04:51;;;;;;;20.08;3.00;;;3.00;99.90;;;;;;5012273;28;20041;-56
2022/02/05 07:07:17;;;;;;;11.07;3.00;;;3.00;99.90;;;;;;5012629;28;20010;-57
2022/02/05 07:09:43;;;;;;;10.23;3.00;;;3.00;99.90;;;;;;5012158;28;20017;-56
2022/02/05 07:12:11;;;;;;;10.85;2.65;;;3.00;99.90;;;;;;5012167;28;20030;-57
2022/02/05 07:14:45;;;;;;;17.85;3.20;;;3.00;99.90;;;;;;5011858;28;20018;-56
2022/02/05 07:17:25;;;;;;;14.68;2.95;;;3.00;99.90;;;;;;5010723;28;20057;-56
2022/02/05 07:20:05;;;;;;;14.63;3.35;;;3.00;99.90;;;;;;5010615;28;20510;-56
2022/02/05 07:22:44;;;;;;;12.50;2.90;;;3.00;99.90;;;;;;5011856;28;20502;-56
2022/02/05 07:30:20;;;;;;;15.27;3.03;;;3.00;99.90;;;;;;5012245;28;20100;-56
2022/02/05 07:32:45;;;;;;;12.38;3.33;;;3.00;99.90;;;;;;5012347;28;20038;-56
2022/02/05 07:35:11;;;;;;;10.15;2.75;;;3.00;99.90;;;;;;5012016;28;20037;-56
2022/02/05 07:37:36;;;;;;;9.55;2.80;;;3.00;99.90;;;;;;5011197;28;20192;-56
2022/02/05 07:40:02;;;;;;;10.40;3.17;;;3.00;99.90;;;;;;5011837;28;20582;-56
2022/02/05 07:42:28;;;;;;;11.85;3.55;;;3.00;99.90;;;;;;5010213;28;20022;-57
2022/02/05 07:44:54;;;;;;;15.77;4.25;;;3.00;99.90;;;;;;5011194;28;20468;-56
2022/02/05 07:47:22;;;;;;;20.00;3.75;;;3.00;99.90;;;;;;5011912;28;20098;-56
2022/02/05 07:49:48;;;;;;;16.15;3.80;;;3.00;99.90;;;;;;5012046;28;20133;-56
2022/02/05 07:52:14;;;;;;;16.05;3.88;;;3.10;99.90;;;;;;5010501;28;20136;-56
2022/02/05 07:54:40;;;;;;;15.98;3.28;;;3.10;99.90;;;;;;5011861;28;20026;-56
2022/02/05 07:57:06;;;;;;;17.25;3.42;;;3.10;99.90;;;;;;5012012;28;20184;-57
2022/02/05 07:59:32;;;;;;;20.27;3.63;;;3.20;99.90;;;;;;5011958;28;20029;-57
2022/02/05 08:01:58;;;;;;;13.45;3.50;;;3.20;99.90;;;;;;5010463;28;20030;-57
2022/02/05 08:04:24;;;;;;;16.60;3.28;;;3.30;99.90;;;;;;5011984;28;20026;-57
2022/02/05 08:06:51;;;;;;;15.30;3.65;;;3.30;99.90;;;;;;5011458;28;20109;-56
2022/02/05 08:09:30;;;;;;;10.43;3.30;;;3.30;99.90;;;;;;5012128;28;20050;-57
2022/02/05 08:12:01;;;;;;;19.70;3.22;;;3.30;99.90;;;;;;5011444;28;20261;-56
2022/02/05 08:14:29;;;;;;;7.55;3.15;;;3.30;99.90;;;;;;5011739;28;20026;-57
2022/02/05 08:17:04;;;;;;;13.75;3.50;;;3.40;99.90;;;;;;5011806;28;20336;-56
2022/02/05 08:19:29;;;;;;;19.13;3.40;;;3.50;99.90;;;;;;5011706;28;20026;-56
2022/02/05 08:21:55;;;;;;;10.75;2.90;;;3.50;99.90;;;;;;5012529;28;20040;-56
2022/02/05 08:24:21;;;;;;;13.63;4.13;;;3.60;99.90;;;;;;5012295;28;20026;-56
2022/02/05 08:26:46;;;;;;;9.50;3.05;;;3.60;99.90;;;;;;5011703;28;20467;-56
2022/02/05 08:29:14;;;;;;;17.20;3.95;;;3.60;99.90;;;;;;5011301;28;20026;-57
2022/02/05 08:31:40;;;;;;;15.07;3.40;;;3.70;99.90;;;;;;5011752;28;20445;-57
2022/02/05 08:34:06;;;;;;;13.90;3.65;;;3.80;99.90;;;;;;5011951;28;20538;-57
2022/02/05 08:36:46;;;;;;;15.02;3.60;;;3.90;99.90;;;;;;5011448;28;20049;-56
2022/02/05 08:39:13;;;;;;;11.52;3.92;;;4.20;99.90;;;;;;5011662;28;20031;-56
2022/02/05 08:41:39;;;;;;;13.23;3.70;;;4.80;99.90;;;;;;5012130;28;20034;-56
2022/02/05 08:44:06;;;;;;;14.07;4.13;;;5.50;99.90;;;;;;5011424;28;20445;-57
2022/02/05 08:46:32;;;;;;;13.10;3.85;;;6.20;99.90;;;;;;5010937;28;20088;-56
2022/02/05 08:48:57;;;;;;;11.15;4.22;;;6.70;99.90;;;;;;5012193;28;20029;-57
2022/02/05 08:51:23;;;;;;;13.15;4.88;;;6.90;99.90;;;;;;5013208;28;20089;-57
2022/02/05 08:53:49;;;;;;;10.77;3.97;;;7.20;99.90;;;;;;5014679;28;20026;-57
2022/02/05 08:56:15;;;;;;;13.13;3.50;;;7.60;99.90;;;;;;5016451;28;20033;-57
2022/02/05 08:58:41;;;;;;;11.30;3.47;;;7.80;99.90;;;;;;5014484;28;20029;-56
2022/02/05 09:03:49;;;;;;;9.73;2.65;;;7.30;99.90;;;;;;5014822;28;20205;-56
2022/02/05 09:06:19;;;;;;;8.30;2.80;;;7.50;99.90;;;;;;5014940;28;20047;-56
2022/02/05 09:08:50;;;;;;;9.23;2.60;;;6.90;99.90;;;;;;5015126;28;20045;-56
2022/02/05 09:16:22;;;;;;;13.13;2.92;;;7.50;99.90;;;;;;5014774;28;20476;-56
2022/02/05 09:18:48;;;;;;;15.70;3.15;;;8.00;99.90;;;;;;5015039;28;20033;-56
2022/02/05 09:21:15;;;;;;;5.97;2.08;;;7.90;99.90;;;;;;5014869;28;20030;-56
2022/02/05 09:23:44;;;;;;;13.75;2.63;;;7.40;99.90;;;;;;5014381;28;20105;-56
2022/02/05 09:26:12;;;;;;;9.55;2.80;;;7.40;99.90;;;;;;5012831;28;20033;-57
2022/02/05 09:28:41;;;;;;;10.45;2.40;;;7.70;99.90;;;;;;5013944;28;20038;-56
2022/02/05 09:33:34;;;;;;;10.73;2.20;;;8.60;99.90;;;;;;5014245;28;20410;-57
2022/02/05 09:36:00;;;;;;;6.90;2.35;;;8.10;99.90;;;;;;5013957;28;20018;-56
2022/02/05 09:38:26;;;;;;;10.60;2.67;;;8.00;99.90;;;;;;5014194;28;20434;-56
2022/02/05 09:40:52;;;;;;;8.70;3.08;;;8.30;99.90;;;;;;5013263;28;20062;-56
2022/02/05 09:43:26;;;;;;;10.40;2.60;;;8.90;99.90;;;;;;5012312;28;20419;-57
2022/02/05 09:45:52;;;;;;;7.63;2.35;;;9.30;99.90;;;;;;5014034;28;20030;-57
2022/02/05 09:48:19;;;;;;;8.65;2.58;;;9.50;99.90;;;;;;5013922;28;20022;-57
2022/02/05 09:50:46;;;;;;;9.82;2.50;;;9.60;99.90;;;;;;5013283;28;20080;-57
2022/02/05 09:53:16;;;;;;;8.38;2.55;;;9.80;99.90;;;;;;5013917;28;20038;-57
2022/02/05 09:55:44;;;;;;;10.75;2.50;;;10.20;99.90;;;;;;5013769;28;20486;-57
2022/02/05 09:58:11;;;;;;;8.85;2.30;;;10.10;99.90;;;;;;5013517;28;20022;-56
2022/02/05 10:00:37;;;;;;;10.90;2.30;;;10.50;99.90;;;;;;5011881;28;20026;-57
2022/02/05 10:03:05;;;;;;;10.80;2.42;;;10.70;99.90;;;;;;5013110;28;20542;-56
2022/02/05 10:05:33;;;;;;;11.77;2.30;;;9.70;99.90;;;;;;5014252;28;20076;-57
2022/02/05 10:08:09;;;;;;;10.50;2.38;;;10.20;99.90;;;;;;5012961;28;20091;-57
2022/02/05 10:10:41;;;;;;;10.65;2.30;;;10.70;99.90;;;;;;5011981;28;20030;-56
2022/02/05 10:13:11;;;;;;;;;;;10.40;99.90;;;;;;5013133;28;20125;-57
2022/02/05 10:15:38;;;;;;;9.18;2.40;;;10.50;99.90;;;;;;5013153;28;19933;-56
2022/02/05 10:18:04;;;;;;;7.93;2.10;;;10.20;99.90;;;;;;5013219;28;20026;-56
2022/02/05 10:20:31;;;;;;;12.18;2.72;;;10.20;99.90;;;;;;5012304;28;20427;-57
2022/02/05 10:23:08;;;;;;;8.82;2.38;;;10.40;99.90;;;;;;5013065;28;20034;-57
2022/02/05 10:25:33;;;;;;;10.50;2.33;;;10.90;99.90;;;;;;5013052;28;20096;-57
2022/02/05 10:27:59;;;;;;;11.35;2.38;;;11.20;99.90;;;;;;5013088;28;20021;-57
2022/02/05 10:30:29;;;;;;;8.88;2.25;;;10.20;99.90;;;;;;5011865;28;20479;-56
2022/02/05 10:33:06;;;;;;;12.80;2.80;;;9.60;99.90;;;;;;5013519;28;20029;-55
2022/02/05 10:35:54;;;;;;;10.27;2.53;;;8.90;99.90;;;;;;5013387;28;20026;-56
2022/02/05 10:43:53;;;;;;;6.63;1.90;;;9.90;99.90;;;;;;5013214;28;20032;-55
2022/02/05 10:46:19;;;;;;;5.45;1.88;;;9.70;99.90;;;;;;5011284;28;20116;-55
2022/02/05 10:48:45;;;;;;;9.63;2.90;;;9.50;99.90;;;;;;5011315;28;20033;-56
2022/02/05 10:51:12;;;;;;;7.47;2.33;;;9.40;99.90;;;;;;5012913;28;20118;-56
2022/02/05 10:53:49;;;;;;;7.80;2.88;;;9.70;99.90;;;;;;5013393;28;20544;-56
2022/02/05 10:56:35;;;;;;;7.05;2.33;;;9.90;99.90;;;;;;5012313;28;20489;-56
2022/02/05 11:07:20;;;;;;;8.97;2.00;;;10.60;99.90;;;;;;5012629;28;20044;-56
2022/02/05 11:09:49;;;;;;;9.75;2.55;;;10.20;99.90;;;;;;5012260;28;20260;-56
2022/02/05 11:20:31;;;;;;;12.93;2.78;;;10.60;99.90;;;;;;5012110;28;20120;-56
2022/02/05 11:23:04;;;;;;;8.30;2.47;;;10.40;99.90;;;;;;5012263;28;20479;-56
2022/02/05 11:25:41;;;;;;;10.70;2.35;;;10.60;99.90;;;;;;5010737;28;20021;-56
2022/02/05 11:28:10;;;;;;;12.73;2.60;;;9.60;99.90;;;;;;5010469;28;20525;-56
2022/02/05 11:30:39;;;;;;;10.82;2.15;;;10.30;99.90;;;;;;5011746;28;20069;-56
2022/02/05 11:33:19;;;;;;;9.82;2.28;;;10.20;99.90;;;;;;5011957;28;20509;-55
2022/02/05 11:38:35;;;;;;;10.20;2.10;;;9.60;99.90;;;;;;5010497;28;20080;-56
2022/02/05 11:41:02;;;;;;;9.30;2.70;;;10.60;99.90;;;;;;5011799;28;20116;-56
2022/02/05 11:43:31;;;;;;;8.82;2.25;;;10.90;99.90;;;;;;5011773;28;20075;-56
2022/02/05 11:46:18;;;;;;;9.10;2.22;;;11.00;99.90;;;;;;5010680;28;20109;-55
2022/02/05 11:48:56;;;;;;;9.80;2.22;;;10.70;99.90;;;;;;5011623;28;20030;-56
2022/02/05 11:51:30;;;;;;;11.38;2.42;;;10.60;99.90;;;;;;5011468;28;20033;-56
2022/02/05 11:53:59;;;;;;;7.68;2.30;;;11.30;99.90;;;;;;5011673;28;20014;-56
2022/02/05 11:56:55;;;;;;;12.55;2.72;;;11.60;99.90;;;;;;5011219;28;20022;-56
2022/02/05 11:59:33;;;;;;;9.35;2.40;;;11.40;99.90;;;;;;5010257;28;20400;-56
2022/02/05 12:02:16;;;;;;;9.70;2.17;;;11.70;99.90;;;;;;5011247;28;20056;-57
2022/02/05 12:04:43;;;;;;;12.40;2.60;;;12.80;99.90;;;;;;5011409;28;20036;-57
2022/02/05 12:07:11;;;;;;;10.60;2.33;;;13.20;99.90;;;;;;5010865;28;20034;-57
2022/02/05 12:09:46;;;;;;;9.63;2.63;;;13.30;99.90;;;;;;5011232;28;20391;-57
2022/02/05 12:12:33;;;;;;;9.07;2.75;;;13.70;99.90;;;;;;5010867;28;20038;-56
2022/02/05 12:15:14;;;;;;;11.63;3.05;;;13.70;99.90;;;;;;5011245;28;20498;-57
2022/02/05 12:21:04;;;;;;;6.47;2.40;;;13.70;99.90;;;;;;5011282;28;20038;-56
2022/02/05 12:24:14;;;;;;;6.47;1.63;;;14.20;99.90;;;;;;5010939;28;20084;-56
2022/02/05 12:26:29;;;;;;;6.07;1.88;;;13.00;99.90;;;;;;5014513;28;20130;-56
2022/02/05 12:29:01;;;;;;;7.78;2.08;;;12.40;99.90;;;;;;5014719;28;20037;-56
2022/02/05 12:31:30;;;;;;;6.38;1.70;;;12.00;99.90;;;;;;5015172;28;20176;-56
2022/02/05 12:34:02;;;;;;;9.63;2.10;;;11.40;99.90;;;;;;5015363;28;20018;-56
2022/02/05 12:36:40;;;;;;;9.77;2.38;;;11.40;99.90;;;;;;5015044;28;20048;-56
2022/02/05 12:39:10;;;;;;;10.05;2.95;;;11.80;99.90;;;;;;5014945;28;20510;-56
2022/02/05 12:41:37;;;;;;;7.47;2.28;;;12.40;99.90;;;;;;5014822;28;20053;-56
2022/02/05 12:44:07;;;;;;;9.38;1.95;;;13.10;99.90;;;;;;5014568;28;20044;-57
2022/02/05 12:46:45;;;;;;;8.32;2.65;;;13.10;99.90;;;;;;5014621;28;20541;-56
2022/02/05 12:49:21;;;;;;;9.73;2.35;;;12.80;99.90;;;;;;5014316;28;20073;-56
2022/02/05 12:51:48;;;;;;;10.52;2.90;;;13.20;99.90;;;;;;5014525;28;20026;-56
2022/02/05 12:54:21;;;;;;;12.98;2.65;;;13.60;99.90;;;;;;5015210;28;20026;-57
2022/02/05 12:56:47;;;;;;;10.55;3.72;;;13.90;99.90;;;;;;5014808;28;20030;-56
2022/02/05 12:59:17;;;;;;;11.00;3.28;;;13.30;99.90;;;;;;5016083;28;20018;-58
2022/02/05 13:01:54;;;;;;;10.00;2.70;;;13.70;99.90;;;;;;5015077;28;20463;-56
2022/02/05 13:04:26;;;;;;;10.07;2.78;;;14.00;99.90;;;;;;5014401;28;20022;-57
2022/02/05 13:07:24;;;;;;;10.02;2.45;;;14.50;99.90;;;;;;5013275;28;20048;-57
2022/02/05 13:09:57;;;;;;;9.02;2.47;;;14.50;99.40;;;;;;5013797;28;20042;-56
2022/02/05 13:12:36;;;;;;;8.20;2.20;;;14.50;99.70;;;;;;5014661;28;20088;-56
2022/02/05 13:15:25;;;;;;;7.80;2.58;;;13.40;99.90;;;;;;5014267;28;20430;-56
2022/02/05 13:28:28;;;;;;;13.05;2.90;;;11.00;99.90;;;;;;5014291;28;20022;-56
2022/02/05 13:33:45;;;;;;;12.52;2.17;;;11.50;99.90;;;;;;5014062;28;20026;-56
2022/02/05 13:36:34;;;;;;;16.33;2.50;;;12.00;99.90;;;;;;5013275;28;20078;-56
2022/02/05 13:39:21;;;;;;;10.18;2.58;;;10.70;99.90;;;;;;5014884;28;20017;-56
2022/02/05 13:42:00;;;;;;;11.90;2.15;;;10.10;99.90;;;;;;5014725;28;20667;-55
2022/02/05 13:44:55;;;;;;;15.13;2.67;;;10.50;99.90;;;;;;5014507;28;20041;-56
2022/02/05 13:47:32;;;;;;;8.20;2.17;;;10.50;99.90;;;;;;5014423;28;20388;-56
2022/02/05 13:50:18;;;;;;;13.80;2.72;;;9.90;99.90;;;;;;5014064;28;20041;-59
2022/02/05 13:52:47;;;;;;;10.95;2.50;;;9.90;99.90;;;;;;5013211;28;20076;-56
2022/02/05 13:55:18;;;;;;;11.25;2.17;;;9.90;99.90;;;;;;5013432;28;20080;-56
2022/02/05 13:58:16;;;;;;;10.60;2.65;;;9.90;99.90;;;;;;5013458;28;20523;-58
2022/02/05 14:00:46;;;;;;;9.48;2.33;;;10.40;99.90;;;;;;5009742;28;20542;-56
2022/02/05 14:03:15;;;;;;;7.38;1.55;;;10.40;99.90;;;;;;5013436;28;20052;-56
2022/02/05 14:06:09;;;;;;;5.05;1.38;;;10.50;99.90;;;;;;5013232;28;20026;-56
2022/02/05 14:08:41;;;;;;;13.68;2.42;;;10.30;99.90;;;;;;5012639;28;20479;-56
2022/02/05 14:11:08;;;;;;;7.22;1.67;;;9.90;99.90;;;;;;5013191;28;20026;-56
2022/02/05 14:13:35;;;;;;;7.93;1.88;;;9.80;99.90;;;;;;5013832;28;20026;-56
2022/02/05 14:16:02;;;;;;;12.15;2.05;;;9.70;99.90;;;;;;5016805;28;20024;-56
2022/02/05 14:18:30;;;;;;;9.30;2.38;;;9.60;99.90;;;;;;5021372;28;20014;-56
2022/02/05 14:21:00;;;;;;;12.65;2.17;;;9.70;99.90;;;;;;5016311;28;20407;-56
2022/02/05 14:23:32;;;;;;;12.55;1.77;;;9.70;99.90;;;;;;5013276;28;20474;-56
2022/02/05 14:26:06;;;;;;;11.30;2.10;;;9.50;99.90;;;;;;5013013;28;20073;-56
2022/02/05 14:28:53;;;;;;;5.47;1.50;;;9.60;99.90;;;;;;5013537;28;20120;-56
2022/02/05 14:34:12;;;;;;;7.10;1.38;;;9.70;99.90;;;;;;5013191;28;20084;-56
2022/02/05 14:42:10;;;;;;;5.88;1.15;;;9.40;99.90;;;;;;5013348;28;20076;-56
2022/02/05 14:44:36;;;;;;;13.70;1.95;;;9.40;99.90;;;;;;5012684;28;20018;-57
2022/02/05 14:47:04;;;;;;;8.40;1.45;;;9.20;99.90;;;;;;5012625;28;20085;-59
2022/02/05 14:49:29;;;;;;;15.63;2.22;;;9.20;99.90;;;;;;5012922;28;20113;-56
2022/02/05 14:51:57;;;;;;;7.85;1.40;;;9.10;99.90;;;;;;5012743;28;20456;-56
2022/02/05 14:54:23;;;;;;;8.25;1.50;;;9.20;99.90;;;;;;5013195;28;20088;-56
2022/02/05 14:56:49;;;;;;;11.02;1.60;;;9.10;99.90;;;;;;5013215;28;20054;-56
2022/02/05 14:59:15;;;;;;;11.20;1.83;;;9.20;99.90;;;;;;5012816;28;20132;-56
2022/02/05 15:01:41;;;;;;;11.68;2.22;;;9.30;99.90;;;;;;5011192;28;20120;-56
2022/02/05 15:04:06;;;;;;;8.48;2.03;;;9.10;99.90;;;;;;5013221;28;20527;-56
2022/02/05 15:06:34;;;;;;;11.15;2.60;;;9.10;99.90;;;;;;5013053;28;20030;-56
2022/02/05 15:09:02;;;;;;;8.32;1.73;;;9.30;99.90;;;;;;5011241;28;20026;-56
2022/02/05 15:11:29;;;;;;;12.80;2.60;;;9.20;99.90;;;;;;5012620;28;20093;-56
2022/02/05 15:13:57;;;;;;;8.00;2.00;;;9.10;99.90;;;;;;5012815;28;20022;-56
2022/02/05 15:16:23;;;;;;;8.75;1.60;;;9.00;99.90;;;;;;5012580;28;20022;-56
2022/02/05 15:18:53;;;;;;;10.82;2.10;;;9.00;99.90;;;;;;5012148;28;20041;-56
2022/02/05 15:21:26;;;;;;;10.57;1.95;;;8.80;99.90;;;;;;5012169;28;20487;-56
2022/02/05 15:23:53;;;;;;;4.93;1.65;;;8.80;99.90;;;;;;5012462;28;20137;-57
2022/02/05 15:26:19;;;;;;;13.05;2.15;;;8.80;99.90;;;;;;5012720;28;20360;-57
2022/02/05 15:28:47;;;;;;;12.93;2.35;;;8.80;99.90;;;;;;5012211;28;20076;-57
2022/02/05 15:31:13;;;;;;;9.00;2.53;;;8.80;99.90;;;;;;5012187;28;20042;-56
2022/02/05 15:33:43;;;;;;;9.93;2.30;;;8.70;99.90;;;;;;5012553;28;20018;-56
2022/02/05 15:36:12;;;;;;;16.08;2.72;;;8.70;99.90;;;;;;5012191;28;20233;-57
2022/02/05 15:43:53;;;;;;;11.48;2.33;;;8.70;99.90;;;;;;5013419;28;20036;-57
2022/02/05 15:46:19;;;;;;;7.07;2.50;;;8.60;99.90;;;;;;5012499;28;20116;-57
2022/02/05 15:48:45;;;;;;;14.23;3.20;;;8.70;99.90;;;;;;5012231;28;20026;-56
2022/02/05 15:51:11;;;;;;;19.60;3.22;;;8.60;99.90;;;;;;5012045;28;20434;-58
2022/02/05 15:53:51;;;;;;;14.35;2.75;;;8.70;99.90;;;;;;5011757;28;20026;-55
2022/02/05 15:59:04;;;;;;;13.32;3.30;;;8.60;99.90;;;;;;5015101;28;20072;-56
2022/02/05 16:01:30;;;;;;;9.23;2.10;;;8.60;99.90;;;;;;5018924;28;20025;-56
2022/02/05 16:03:55;;;;;;;11.15;1.90;;;8.60;99.90;;;;;;5018690;28;20025;-59
2022/02/05 16:06:21;;;;;;;9.45;2.30;;;8.60;99.90;;;;;;5018135;28;20091;-56
2022/02/05 16:08:47;;;;;;;15.35;2.80;;;8.60;99.90;;;;;;5018074;28;20026;-56
2022/02/05 16:11:14;;;;;;;9.95;2.75;;;8.60;99.90;;;;;;5020085;28;20257;-59